sensor_id;sensor_type;location;lat;lon;timestamp;temperature;humidity
9772;DHT22;4925;52.588;13.370;2023-11-21T00:01:58;9.00;99.90
9772;DHT22;4925;52.588;13.370;2023-11-21T00:04:24;8.90;99.90
9772;DHT22;4925;52.588;13.370;2023-11-21T00:06:52;8.90;99.90
9772;DHT22;4925;52.588;13.370;2023-11-21T00:09:18;8.90;99.90
9772;DHT22;4925;52.588;13.370;2023-11-21T00:11:46;8.90;99.90
9772;DHT22;4925;52.588;13.370;2023-11-21T00:14:13;8.90;99.90
9772;DHT22;4925;52.588;13.370;2023-11-21T00:16:40;8.90;99.90
9772;DHT22;4925;52.588;13.370;2023-11-21T00:19:08;8.90;99.90
9772;DHT22;4925;52.588;13.370;2023-11-21T00:21:35;8.90;99.90
9772;DHT22;4925;52.588;13.370;2023-11-21T00:24:02;8.80;99.90
9772;DHT22;4925;52.588;13.370;2023-11-21T00:26:27;8.80;99.90
9772;DHT22;4925;52.588;13.370;2023-11-21T00:28:53;8.70;99.90
9772;DHT22;4925;52.588;13.370;2023-11-21T00:31:19;8.80;99.90
9772;DHT22;4925;52.588;13.370;2023-11-21T00:33:46;8.80;99.90
9772;DHT22;4925;52.588;13.370;2023-11-21T00:36:11;8.80;99.90
9772;DHT22;4925;52.588;13.370;2023-11-21T00:38:37;8.70;99.90
9772;DHT22;4925;52.588;13.370;2023-11-21T00:41:05;8.70;99.90
9772;DHT22;4925;52.588;13.370;2023-11-21T00:43:33;8.60;99.90
9772;DHT22;4925;52.588;13.370;2023-11-21T00:45:59;8.60;99.90
9772;DHT22;4925;52.588;13.370;2023-11-21T00:48:26;8.50;99.90
9772;DHT22;4925;52.588;13.370;2023-11-21T00:50:51;8.60;99.90
9772;DHT22;4925;52.588;13.370;2023-11-21T00:53:19;8.50;99.90
9772;DHT22;4925;52.588;13.370;2023-11-21T00:55:44;8.60;99.90
9772;DHT22;4925;52.588;13.370;2023-11-21T00:58:10;8.60;99.90
9772;DHT22;4925;52.588;13.370;2023-11-21T01:00:36;8.60;99.90
9772;DHT22;4925;52.588;13.370;2023-11-21T01:03:04;8.60;99.90
9772;DHT22;4925;52.588;13.370;2023-11-21T01:05:30;8.60;99.90
9772;DHT22;4925;52.588;13.370;2023-11-21T01:07:57;8.50;99.90
9772;DHT22;4925;52.588;13.370;2023-11-21T01:10:23;8.50;99.90
9772;DHT22;4925;52.588;13.370;2023-11-21T01:12:48;8.60;99.90
9772;DHT22;4925;52.588;13.370;2023-11-21T01:15:14;8.50;99.90
9772;DHT22;4925;52.588;13.370;2023-11-21T01:17:40;8.60;99.90
9772;DHT22;4925;52.588;13.370;2023-11-21T01:20:06;8.50;99.90
9772;DHT22;4925;52.588;13.370;2023-11-21T01:22:36;8.50;99.90
9772;DHT22;4925;52.588;13.370;2023-11-21T01:25:02;8.60;99.90
9772;DHT22;4925;52.588;13.370;2023-11-21T01:27:35;8.50;99.90
9772;DHT22;4925;52.588;13.370;2023-11-21T01:30:02;8.40;99.90
9772;DHT22;4925;52.588;13.370;2023-11-21T01:32:28;8.50;99.90
9772;DHT22;4925;52.588;13.370;2023-11-21T01:34:55;8.40;99.90
9772;DHT22;4925;52.588;13.370;2023-11-21T01:37:21;8.40;99.90
9772;DHT22;4925;52.588;13.370;2023-11-21T01:39:47;8.40;99.90
9772;DHT22;4925;52.588;13.370;2023-11-21T01:42:13;8.40;99.90
9772;DHT22;4925;52.588;13.370;2023-11-21T01:44:40;8.30;99.90
9772;DHT22;4925;52.588;13.370;2023-11-21T01:47:06;8.40;99.90
9772;DHT22;4925;52.588;13.370;2023-11-21T01:49:32;8.40;99.90
9772;DHT22;4925;52.588;13.370;2023-11-21T01:51:58;8.30;99.90
9772;DHT22;4925;52.588;13.370;2023-11-21T01:54:26;8.30;99.90
9772;DHT22;4925;52.588;13.370;2023-11-21T01:57:00;8.20;99.90
9772;DHT22;4925;52.588;13.370;2023-11-21T01:59:34;8.20;99.90
9772;DHT22;4925;52.588;13.370;2023-11-21T02:02:00;8.20;99.90
9772;DHT22;4925;52.588;13.370;2023-11-21T02:04:26;8.10;99.90
9772;DHT22;4925;52.588;13.370;2023-11-21T02:06:53;8.10;99.90
9772;DHT22;4925;52.588;13.370;2023-11-21T02:09:29;8.10;99.90
9772;DHT22;4925;52.588;13.370;2023-11-21T02:11:56;8.00;99.90
9772;DHT22;4925;52.588;13.370;2023-11-21T02:14:24;8.00;99.90
9772;DHT22;4925;52.588;13.370;2023-11-21T02:16:57;8.00;99.90
9772;DHT22;4925;52.588;13.370;2023-11-21T02:19:26;8.00;99.90
9772;DHT22;4925;52.588;13.370;2023-11-21T02:21:59;8.00;99.90
9772;DHT22;4925;52.588;13.370;2023-11-21T02:24:26;8.00;99.90
9772;DHT22;4925;52.588;13.370;2023-11-21T02:26:52;8.10;99.90
9772;DHT22;4925;52.588;13.370;2023-11-21T02:29:20;8.00;99.90
9772;DHT22;4925;52.588;13.370;2023-11-21T02:31:54;8.10;99.90
9772;DHT22;4925;52.588;13.370;2023-11-21T02:34:22;8.10;99.90
9772;DHT22;4925;52.588;13.370;2023-11-21T02:36:48;8.10;99.90
9772;DHT22;4925;52.588;13.370;2023-11-21T02:39:15;8.10;99.90
9772;DHT22;4925;52.588;13.370;2023-11-21T02:41:47;8.00;99.90
9772;DHT22;4925;52.588;13.370;2023-11-21T02:44:14;7.90;99.90
9772;DHT22;4925;52.588;13.370;2023-11-21T02:46:40;8.00;99.90
9772;DHT22;4925;52.588;13.370;2023-11-21T02:49:06;7.90;99.90
9772;DHT22;4925;52.588;13.370;2023-11-21T02:51:33;7.90;99.90
9772;DHT22;4925;52.588;13.370;2023-11-21T02:53:59;7.90;99.90
9772;DHT22;4925;52.588;13.370;2023-11-21T02:56:28;8.00;99.90
9772;DHT22;4925;52.588;13.370;2023-11-21T02:58:56;7.90;99.90
9772;DHT22;4925;52.588;13.370;2023-11-21T03:01:22;7.90;99.90
9772;DHT22;4925;52.588;13.370;2023-11-21T03:03:49;7.80;99.90
9772;DHT22;4925;52.588;13.370;2023-11-21T03:06:17;7.70;99.90
9772;DHT22;4925;52.588;13.370;2023-11-21T03:08:43;7.70;99.90
9772;DHT22;4925;52.588;13.370;2023-11-21T03:11:10;7.60;99.90
9772;DHT22;4925;52.588;13.370;2023-11-21T03:13:36;7.60;99.90
9772;DHT22;4925;52.588;13.370;2023-11-21T03:16:03;7.70;99.90
9772;DHT22;4925;52.588;13.370;2023-11-21T03:18:29;7.60;99.90
9772;DHT22;4925;52.588;13.370;2023-11-21T03:20:56;7.60;99.90
9772;DHT22;4925;52.588;13.370;2023-11-21T03:23:23;7.50;99.90
9772;DHT22;4925;52.588;13.370;2023-11-21T03:25:48;7.50;99.90
9772;DHT22;4925;52.588;13.370;2023-11-21T03:28:14;7.50;99.90
9772;DHT22;4925;52.588;13.370;2023-11-21T03:30:41;7.50;99.90
9772;DHT22;4925;52.588;13.370;2023-11-21T03:33:08;7.40;99.90
9772;DHT22;4925;52.588;13.370;2023-11-21T03:35:33;7.50;99.90
9772;DHT22;4925;52.588;13.370;2023-11-21T03:38:00;7.50;99.90
9772;DHT22;4925;52.588;13.370;2023-11-21T03:40:30;7.50;99.90
9772;DHT22;4925;52.588;13.370;2023-11-21T03:42:57;7.60;99.90
9772;DHT22;4925;52.588;13.370;2023-11-21T03:45:22;7.50;99.90
9772;DHT22;4925;52.588;13.370;2023-11-21T03:47:48;7.50;99.90
9772;DHT22;4925;52.588;13.370;2023-11-21T03:50:14;7.40;99.90
9772;DHT22;4925;52.588;13.370;2023-11-21T03:52:40;7.30;99.90
9772;DHT22;4925;52.588;13.370;2023-11-21T03:55:05;7.30;99.90
9772;DHT22;4925;52.588;13.370;2023-11-21T03:57:31;7.40;99.90
9772;DHT22;4925;52.588;13.370;2023-11-21T03:59:58;7.40;99.90
9772;DHT22;4925;52.588;13.370;2023-11-21T04:02:24;7.40;99.90
9772;DHT22;4925;52.588;13.370;2023-11-21T04:04:51;7.40;99.90
9772;DHT22;4925;52.588;13.370;2023-11-21T04:07:18;7.50;99.90
9772;DHT22;4925;52.588;13.370;2023-11-21T04:09:44;7.50;99.90
9772;DHT22;4925;52.588;13.370;2023-11-21T04:12:10;7.50;99.90
9772;DHT22;4925;52.588;13.370;2023-11-21T04:14:35;7.50;99.90
9772;DHT22;4925;52.588;13.370;2023-11-21T04:17:01;7.60;99.90
9772;DHT22;4925;52.588;13.370;2023-11-21T04:19:27;7.60;99.90
9772;DHT22;4925;52.588;13.370;2023-11-21T04:21:54;7.60;99.90
9772;DHT22;4925;52.588;13.370;2023-11-21T04:24:19;7.60;99.90
9772;DHT22;4925;52.588;13.370;2023-11-21T04:26:45;7.60;99.90
9772;DHT22;4925;52.588;13.370;2023-11-21T04:29:12;7.50;99.90
9772;DHT22;4925;52.588;13.370;2023-11-21T04:31:37;7.50;99.90
9772;DHT22;4925;52.588;13.370;2023-11-21T04:34:03;7.50;99.90
9772;DHT22;4925;52.588;13.370;2023-11-21T04:36:32;7.50;99.90
9772;DHT22;4925;52.588;13.370;2023-11-21T04:38:59;7.60;99.90
9772;DHT22;4925;52.588;13.370;2023-11-21T04:41:24;7.60;99.90
9772;DHT22;4925;52.588;13.370;2023-11-21T04:43:50;7.60;99.90
9772;DHT22;4925;52.588;13.370;2023-11-21T04:46:16;7.60;99.90
9772;DHT22;4925;52.588;13.370;2023-11-21T04:48:42;7.60;99.90
9772;DHT22;4925;52.588;13.370;2023-11-21T04:51:08;7.50;99.90
9772;DHT22;4925;52.588;13.370;2023-11-21T04:53:35;7.50;99.90
9772;DHT22;4925;52.588;13.370;2023-11-21T04:56:01;7.40;99.90
9772;DHT22;4925;52.588;13.370;2023-11-21T04:58:28;7.40;99.90
9772;DHT22;4925;52.588;13.370;2023-11-21T05:00:56;7.40;99.90
9772;DHT22;4925;52.588;13.370;2023-11-21T05:03:22;7.40;99.90
9772;DHT22;4925;52.588;13.370;2023-11-21T05:05:49;7.30;99.90
9772;DHT22;4925;52.588;13.370;2023-11-21T05:08:15;7.40;99.90
9772;DHT22;4925;52.588;13.370;2023-11-21T05:10:40;7.30;99.90
9772;DHT22;4925;52.588;13.370;2023-11-21T05:13:06;7.30;99.90
9772;DHT22;4925;52.588;13.370;2023-11-21T05:15:36;7.40;99.90
9772;DHT22;4925;52.588;13.370;2023-11-21T05:18:02;7.30;99.90
9772;DHT22;4925;52.588;13.370;2023-11-21T05:20:30;7.30;99.90
9772;DHT22;4925;52.588;13.370;2023-11-21T05:22:56;7.20;99.90
9772;DHT22;4925;52.588;13.370;2023-11-21T05:25:21;7.20;99.90
9772;DHT22;4925;52.588;13.370;2023-11-21T05:27:47;7.20;99.90
9772;DHT22;4925;52.588;13.370;2023-11-21T05:30:13;7.20;99.90
9772;DHT22;4925;52.588;13.370;2023-11-21T05:32:40;7.10;99.90
9772;DHT22;4925;52.588;13.370;2023-11-21T05:35:11;7.10;99.90
9772;DHT22;4925;52.588;13.370;2023-11-21T05:37:42;7.00;99.90
9772;DHT22;4925;52.588;13.370;2023-11-21T05:40:08;6.90;99.90
9772;DHT22;4925;52.588;13.370;2023-11-21T05:42:35;6.90;99.90
9772;DHT22;4925;52.588;13.370;2023-11-21T05:45:02;6.90;99.90
9772;DHT22;4925;52.588;13.370;2023-11-21T05:47:38;6.80;99.90
9772;DHT22;4925;52.588;13.370;2023-11-21T05:50:08;6.70;99.90
9772;DHT22;4925;52.588;13.370;2023-11-21T05:52:40;6.80;99.90
9772;DHT22;4925;52.588;13.370;2023-11-21T05:55:08;6.80;99.90
9772;DHT22;4925;52.588;13.370;2023-11-21T05:57:41;6.80;99.90
9772;DHT22;4925;52.588;13.370;2023-11-21T06:00:10;6.80;99.90
9772;DHT22;4925;52.588;13.370;2023-11-21T06:02:48;6.70;99.90
9772;DHT22;4925;52.588;13.370;2023-11-21T06:05:24;6.70;99.90
9772;DHT22;4925;52.588;13.370;2023-11-21T06:07:55;6.70;99.90
9772;DHT22;4925;52.588;13.370;2023-11-21T06:10:28;6.70;99.90
9772;DHT22;4925;52.588;13.370;2023-11-21T06:12:53;6.70;99.90
9772;DHT22;4925;52.588;13.370;2023-11-21T06:15:19;6.70;99.90
9772;DHT22;4925;52.588;13.370;2023-11-21T06:17:46;6.80;99.90
9772;DHT22;4925;52.588;13.370;2023-11-21T06:20:15;6.80;99.90
9772;DHT22;4925;52.588;13.370;2023-11-21T06:22:45;6.80;99.90
9772;DHT22;4925;52.588;13.370;2023-11-21T06:25:13;6.90;99.90
9772;DHT22;4925;52.588;13.370;2023-11-21T06:27:44;6.90;99.90
9772;DHT22;4925;52.588;13.370;2023-11-21T06:30:11;6.80;99.90
9772;DHT22;4925;52.588;13.370;2023-11-21T06:32:39;6.90;99.90
9772;DHT22;4925;52.588;13.370;2023-11-21T06:35:07;6.90;99.90
9772;DHT22;4925;52.588;13.370;2023-11-21T06:37:33;7.00;99.90
9772;DHT22;4925;52.588;13.370;2023-11-21T06:40:03;7.00;99.90
9772;DHT22;4925;52.588;13.370;2023-11-21T06:42:33;7.00;99.90
9772;DHT22;4925;52.588;13.370;2023-11-21T06:44:59;7.00;99.90
9772;DHT22;4925;52.588;13.370;2023-11-21T06:47:29;7.00;99.90
9772;DHT22;4925;52.588;13.370;2023-11-21T06:49:59;7.00;99.90
9772;DHT22;4925;52.588;13.370;2023-11-21T06:52:27;7.00;99.90
9772;DHT22;4925;52.588;13.370;2023-11-21T06:54:53;7.10;99.90
9772;DHT22;4925;52.588;13.370;2023-11-21T06:57:20;7.10;99.90
9772;DHT22;4925;52.588;13.370;2023-11-21T06:59:46;7.10;99.90
9772;DHT22;4925;52.588;13.370;2023-11-21T07:02:11;7.10;99.90
9772;DHT22;4925;52.588;13.370;2023-11-21T07:04:37;7.20;99.90
9772;DHT22;4925;52.588;13.370;2023-11-21T07:07:04;7.20;99.90
9772;DHT22;4925;52.588;13.370;2023-11-21T07:09:30;7.10;99.90
9772;DHT22;4925;52.588;13.370;2023-11-21T07:11:56;7.10;99.90
9772;DHT22;4925;52.588;13.370;2023-11-21T07:14:22;7.10;99.90
9772;DHT22;4925;52.588;13.370;2023-11-21T07:16:48;7.30;99.90
9772;DHT22;4925;52.588;13.370;2023-11-21T07:19:13;7.70;99.90
9772;DHT22;4925;52.588;13.370;2023-11-21T07:21:40;8.10;99.90
9772;DHT22;4925;52.588;13.370;2023-11-21T07:24:06;8.40;99.90
9772;DHT22;4925;52.588;13.370;2023-11-21T07:26:34;8.70;99.90
9772;DHT22;4925;52.588;13.370;2023-11-21T07:29:03;8.80;99.90
9772;DHT22;4925;52.588;13.370;2023-11-21T07:31:29;8.80;99.90
9772;DHT22;4925;52.588;13.370;2023-11-21T07:34:00;8.70;99.90
9772;DHT22;4925;52.588;13.370;2023-11-21T07:36:26;8.40;99.90
9772;DHT22;4925;52.588;13.370;2023-11-21T07:38:53;8.30;99.90
9772;DHT22;4925;52.588;13.370;2023-11-21T07:41:19;8.20;99.90
9772;DHT22;4925;52.588;13.370;2023-11-21T07:43:46;8.10;99.90
9772;DHT22;4925;52.588;13.370;2023-11-21T07:46:13;8.00;99.90
9772;DHT22;4925;52.588;13.370;2023-11-21T07:48:40;8.00;99.90
9772;DHT22;4925;52.588;13.370;2023-11-21T07:51:10;7.90;99.90
9772;DHT22;4925;52.588;13.370;2023-11-21T07:53:36;7.90;99.90
9772;DHT22;4925;52.588;13.370;2023-11-21T07:56:06;7.80;99.90
9772;DHT22;4925;52.588;13.370;2023-11-21T07:58:34;7.80;99.90
9772;DHT22;4925;52.588;13.370;2023-11-21T08:01:04;7.80;99.90
9772;DHT22;4925;52.588;13.370;2023-11-21T08:03:31;7.70;99.90
9772;DHT22;4925;52.588;13.370;2023-11-21T08:06:00;7.60;99.90
9772;DHT22;4925;52.588;13.370;2023-11-21T08:08:42;7.50;99.90
9772;DHT22;4925;52.588;13.370;2023-11-21T08:11:08;7.40;99.90
9772;DHT22;4925;52.588;13.370;2023-11-21T08:13:35;7.50;99.90
9772;DHT22;4925;52.588;13.370;2023-11-21T08:16:01;7.50;99.90
9772;DHT22;4925;52.588;13.370;2023-11-21T08:18:29;7.50;99.90
9772;DHT22;4925;52.588;13.370;2023-11-21T08:20:55;7.40;99.90
9772;DHT22;4925;52.588;13.370;2023-11-21T08:23:21;7.40;99.90
9772;DHT22;4925;52.588;13.370;2023-11-21T08:25:53;7.30;99.90
9772;DHT22;4925;52.588;13.370;2023-11-21T08:28:18;7.20;99.90
9772;DHT22;4925;52.588;13.370;2023-11-21T08:30:44;7.20;99.90
9772;DHT22;4925;52.588;13.370;2023-11-21T08:33:16;7.10;99.90
9772;DHT22;4925;52.588;13.370;2023-11-21T08:35:42;7.20;99.90
9772;DHT22;4925;52.588;13.370;2023-11-21T08:38:10;7.20;99.90
9772;DHT22;4925;52.588;13.370;2023-11-21T08:40:36;7.10;99.90
9772;DHT22;4925;52.588;13.370;2023-11-21T08:43:02;7.10;99.90
9772;DHT22;4925;52.588;13.370;2023-11-21T08:45:30;7.10;99.90
9772;DHT22;4925;52.588;13.370;2023-11-21T08:47:55;7.10;99.90
9772;DHT22;4925;52.588;13.370;2023-11-21T08:50:21;7.10;99.90
9772;DHT22;4925;52.588;13.370;2023-11-21T08:52:47;7.00;99.90
9772;DHT22;4925;52.588;13.370;2023-11-21T08:55:14;7.00;99.90
9772;DHT22;4925;52.588;13.370;2023-11-21T08:57:41;7.10;99.90
9772;DHT22;4925;52.588;13.370;2023-11-21T09:00:13;7.10;99.90
9772;DHT22;4925;52.588;13.370;2023-11-21T09:02:43;7.10;99.90
9772;DHT22;4925;52.588;13.370;2023-11-21T09:05:10;7.10;99.90
9772;DHT22;4925;52.588;13.370;2023-11-21T09:07:36;7.10;99.90
9772;DHT22;4925;52.588;13.370;2023-11-21T09:10:06;7.10;99.90
9772;DHT22;4925;52.588;13.370;2023-11-21T09:12:34;7.10;99.90
9772;DHT22;4925;52.588;13.370;2023-11-21T09:15:03;7.10;99.90
9772;DHT22;4925;52.588;13.370;2023-11-21T09:17:30;7.00;99.90
9772;DHT22;4925;52.588;13.370;2023-11-21T09:19:55;7.00;99.90
9772;DHT22;4925;52.588;13.370;2023-11-21T09:22:22;7.10;99.90
9772;DHT22;4925;52.588;13.370;2023-11-21T09:24:51;7.10;99.90
9772;DHT22;4925;52.588;13.370;2023-11-21T09:27:17;6.90;99.90
9772;DHT22;4925;52.588;13.370;2023-11-21T09:29:43;6.90;99.90
9772;DHT22;4925;52.588;13.370;2023-11-21T09:32:09;6.80;99.90
9772;DHT22;4925;52.588;13.370;2023-11-21T09:34:39;6.90;99.90
9772;DHT22;4925;52.588;13.370;2023-11-21T09:37:05;6.90;99.90
9772;DHT22;4925;52.588;13.370;2023-11-21T09:39:32;6.90;99.90
9772;DHT22;4925;52.588;13.370;2023-11-21T09:42:08;6.90;99.90
9772;DHT22;4925;52.588;13.370;2023-11-21T09:47:16;6.80;99.90
9772;DHT22;4925;52.588;13.370;2023-11-21T09:49:49;6.80;99.90
9772;DHT22;4925;52.588;13.370;2023-11-21T09:52:27;6.80;99.90
9772;DHT22;4925;52.588;13.370;2023-11-21T09:54:58;6.80;99.90
9772;DHT22;4925;52.588;13.370;2023-11-21T09:57:25;6.90;99.90
9772;DHT22;4925;52.588;13.370;2023-11-21T09:59:52;6.90;99.90
9772;DHT22;4925;52.588;13.370;2023-11-21T10:02:26;6.90;99.90
9772;DHT22;4925;52.588;13.370;2023-11-21T10:04:55;6.80;99.90
9772;DHT22;4925;52.588;13.370;2023-11-21T10:07:22;7.10;99.90
9772;DHT22;4925;52.588;13.370;2023-11-21T10:09:48;7.00;99.90
9772;DHT22;4925;52.588;13.370;2023-11-21T10:12:18;7.00;99.90
9772;DHT22;4925;52.588;13.370;2023-11-21T10:14:48;6.90;99.90
9772;DHT22;4925;52.588;13.370;2023-11-21T10:17:17;6.90;99.90
9772;DHT22;4925;52.588;13.370;2023-11-21T10:19:46;6.90;99.90
9772;DHT22;4925;52.588;13.370;2023-11-21T10:22:14;6.80;99.90
9772;DHT22;4925;52.588;13.370;2023-11-21T10:24:40;6.80;99.90
9772;DHT22;4925;52.588;13.370;2023-11-21T10:27:08;6.80;99.90
9772;DHT22;4925;52.588;13.370;2023-11-21T10:29:34;6.70;99.90
9772;DHT22;4925;52.588;13.370;2023-11-21T10:32:04;6.80;99.90
9772;DHT22;4925;52.588;13.370;2023-11-21T10:34:30;6.70;99.90
9772;DHT22;4925;52.588;13.370;2023-11-21T10:36:57;6.70;99.90
9772;DHT22;4925;52.588;13.370;2023-11-21T10:39:24;6.60;99.90
9772;DHT22;4925;52.588;13.370;2023-11-21T10:41:54;6.70;99.90
9772;DHT22;4925;52.588;13.370;2023-11-21T10:44:20;6.80;99.90
9772;DHT22;4925;52.588;13.370;2023-11-21T10:46:52;6.80;99.90
9772;DHT22;4925;52.588;13.370;2023-11-21T10:49:25;6.80;99.90
9772;DHT22;4925;52.588;13.370;2023-11-21T10:51:55;6.80;99.90
9772;DHT22;4925;52.588;13.370;2023-11-21T10:54:22;6.80;99.90
9772;DHT22;4925;52.588;13.370;2023-11-21T10:56:50;6.80;99.90
9772;DHT22;4925;52.588;13.370;2023-11-21T10:59:20;6.80;99.90
9772;DHT22;4925;52.588;13.370;2023-11-21T11:01:50;6.80;99.90
9772;DHT22;4925;52.588;13.370;2023-11-21T11:04:22;6.80;99.90
9772;DHT22;4925;52.588;13.370;2023-11-21T11:06:57;6.80;99.90
9772;DHT22;4925;52.588;13.370;2023-11-21T11:09:27;6.80;99.90
9772;DHT22;4925;52.588;13.370;2023-11-21T11:11:52;6.80;99.90
9772;DHT22;4925;52.588;13.370;2023-11-21T11:14:19;6.80;99.90
9772;DHT22;4925;52.588;13.370;2023-11-21T11:16:46;6.70;99.90
9772;DHT22;4925;52.588;13.370;2023-11-21T11:19:14;6.70;99.90
9772;DHT22;4925;52.588;13.370;2023-11-21T11:22:47;6.60;99.90
9772;DHT22;4925;52.588;13.370;2023-11-21T11:27:36;6.40;99.90
9772;DHT22;4925;52.588;13.370;2023-11-21T11:33:34;6.30;99.90
9772;DHT22;4925;52.588;13.370;2023-11-21T11:38:34;6.10;99.90
9772;DHT22;4925;52.588;13.370;2023-11-21T11:41:05;6.00;99.90
9772;DHT22;4925;52.588;13.370;2023-11-21T11:43:31;5.90;99.90
9772;DHT22;4925;52.588;13.370;2023-11-21T11:46:10;6.00;99.90
9772;DHT22;4925;52.588;13.370;2023-11-21T11:48:41;6.10;99.90
9772;DHT22;4925;52.588;13.370;2023-11-21T11:53:41;6.10;99.90
9772;DHT22;4925;52.588;13.370;2023-11-21T11:56:29;6.00;99.90
9772;DHT22;4925;52.588;13.370;2023-11-21T11:59:02;6.00;99.90
9772;DHT22;4925;52.588;13.370;2023-11-21T12:01:32;6.00;99.90
9772;DHT22;4925;52.588;13.370;2023-11-21T12:06:46;6.20;99.90
9772;DHT22;4925;52.588;13.370;2023-11-21T12:09:23;6.20;99.90
9772;DHT22;4925;52.588;13.370;2023-11-21T12:11:50;6.10;99.90
9772;DHT22;4925;52.588;13.370;2023-11-21T12:14:17;6.00;99.90
9772;DHT22;4925;52.588;13.370;2023-11-21T12:16:44;6.10;99.90
9772;DHT22;4925;52.588;13.370;2023-11-21T12:19:15;6.10;99.90
9772;DHT22;4925;52.588;13.370;2023-11-21T12:21:42;6.10;99.90
9772;DHT22;4925;52.588;13.370;2023-11-21T12:24:09;6.10;99.90
9772;DHT22;4925;52.588;13.370;2023-11-21T12:26:36;6.00;99.90
9772;DHT22;4925;52.588;13.370;2023-11-21T12:29:02;6.00;99.90
9772;DHT22;4925;52.588;13.370;2023-11-21T12:31:31;6.00;99.90
9772;DHT22;4925;52.588;13.370;2023-11-21T12:33:58;6.10;99.90
9772;DHT22;4925;52.588;13.370;2023-11-21T12:36:24;6.30;99.90
9772;DHT22;4925;52.588;13.370;2023-11-21T12:38:54;6.50;99.90
9772;DHT22;4925;52.588;13.370;2023-11-21T12:41:19;6.50;99.90
9772;DHT22;4925;52.588;13.370;2023-11-21T12:43:47;6.60;99.90
9772;DHT22;4925;52.588;13.370;2023-11-21T12:46:13;6.60;99.90
9772;DHT22;4925;52.588;13.370;2023-11-21T12:48:44;6.50;99.90
9772;DHT22;4925;52.588;13.370;2023-11-21T12:51:13;6.40;99.90
9772;DHT22;4925;52.588;13.370;2023-11-21T12:53:40;6.40;99.90
9772;DHT22;4925;52.588;13.370;2023-11-21T12:56:12;6.40;99.90
9772;DHT22;4925;52.588;13.370;2023-11-21T12:58:44;6.40;99.90
9772;DHT22;4925;52.588;13.370;2023-11-21T13:01:17;6.30;99.90
9772;DHT22;4925;52.588;13.370;2023-11-21T13:03:49;6.30;99.90
9772;DHT22;4925;52.588;13.370;2023-11-21T13:06:18;6.30;99.90
9772;DHT22;4925;52.588;13.370;2023-11-21T13:08:45;6.20;99.90
9772;DHT22;4925;52.588;13.370;2023-11-21T13:11:11;6.30;99.90
9772;DHT22;4925;52.588;13.370;2023-11-21T13:13:41;6.20;99.90
9772;DHT22;4925;52.588;13.370;2023-11-21T13:16:09;6.20;99.90
9772;DHT22;4925;52.588;13.370;2023-11-21T13:18:35;6.10;99.90
9772;DHT22;4925;52.588;13.370;2023-11-21T13:21:04;6.00;99.90
9772;DHT22;4925;52.588;13.370;2023-11-21T13:23:39;6.00;99.90
9772;DHT22;4925;52.588;13.370;2023-11-21T13:26:11;6.00;99.90
9772;DHT22;4925;52.588;13.370;2023-11-21T13:28:37;5.90;99.90
9772;DHT22;4925;52.588;13.370;2023-11-21T13:31:05;5.80;99.90
9772;DHT22;4925;52.588;13.370;2023-11-21T13:33:47;5.80;99.90
9772;DHT22;4925;52.588;13.370;2023-11-21T13:36:17;5.80;99.90
9772;DHT22;4925;52.588;13.370;2023-11-21T13:38:51;5.90;99.90
9772;DHT22;4925;52.588;13.370;2023-11-21T13:41:19;5.90;99.90
9772;DHT22;4925;52.588;13.370;2023-11-21T13:43:45;5.80;99.90
9772;DHT22;4925;52.588;13.370;2023-11-21T13:46:18;5.70;99.90
9772;DHT22;4925;52.588;13.370;2023-11-21T13:48:48;5.60;99.90
9772;DHT22;4925;52.588;13.370;2023-11-21T13:51:23;5.70;99.90
9772;DHT22;4925;52.588;13.370;2023-11-21T13:54:08;5.70;99.90
9772;DHT22;4925;52.588;13.370;2023-11-21T13:56:37;5.60;99.90
9772;DHT22;4925;52.588;13.370;2023-11-21T13:59:06;5.50;99.90
9772;DHT22;4925;52.588;13.370;2023-11-21T14:01:43;5.50;99.90
9772;DHT22;4925;52.588;13.370;2023-11-21T14:04:23;5.40;99.90
9772;DHT22;4925;52.588;13.370;2023-11-21T14:06:58;5.30;99.90
9772;DHT22;4925;52.588;13.370;2023-11-21T14:09:26;5.30;99.90
9772;DHT22;4925;52.588;13.370;2023-11-21T14:11:58;5.30;99.90
9772;DHT22;4925;52.588;13.370;2023-11-21T14:14:26;5.20;99.90
9772;DHT22;4925;52.588;13.370;2023-11-21T14:16:53;5.10;99.90
9772;DHT22;4925;52.588;13.370;2023-11-21T14:19:21;5.00;99.90
9772;DHT22;4925;52.588;13.370;2023-11-21T14:21:47;5.00;99.90
9772;DHT22;4925;52.588;13.370;2023-11-21T14:24:16;5.00;99.90
9772;DHT22;4925;52.588;13.370;2023-11-21T14:26:46;4.90;99.90
9772;DHT22;4925;52.588;13.370;2023-11-21T14:29:12;4.90;99.90
9772;DHT22;4925;52.588;13.370;2023-11-21T14:31:43;4.70;99.90
9772;DHT22;4925;52.588;13.370;2023-11-21T14:34:09;4.60;99.90
9772;DHT22;4925;52.588;13.370;2023-11-21T14:36:35;4.70;99.90
9772;DHT22;4925;52.588;13.370;2023-11-21T14:39:04;4.80;99.90
9772;DHT22;4925;52.588;13.370;2023-11-21T14:41:46;4.80;99.90
9772;DHT22;4925;52.588;13.370;2023-11-21T14:44:12;4.80;99.90
9772;DHT22;4925;52.588;13.370;2023-11-21T14:46:40;4.70;99.90
9772;DHT22;4925;52.588;13.370;2023-11-21T14:49:09;4.70;99.90
9772;DHT22;4925;52.588;13.370;2023-11-21T14:51:52;4.70;99.90
9772;DHT22;4925;52.588;13.370;2023-11-21T14:54:30;4.60;99.90
9772;DHT22;4925;52.588;13.370;2023-11-21T14:57:10;4.60;99.90
9772;DHT22;4925;52.588;13.370;2023-11-21T14:59:46;4.70;99.90
9772;DHT22;4925;52.588;13.370;2023-11-21T15:02:14;4.60;99.90
9772;DHT22;4925;52.588;13.370;2023-11-21T15:04:43;4.70;99.90
9772;DHT22;4925;52.588;13.370;2023-11-21T15:07:10;4.70;99.90
9772;DHT22;4925;52.588;13.370;2023-11-21T15:09:41;4.60;99.90
9772;DHT22;4925;52.588;13.370;2023-11-21T15:12:08;4.60;99.90
9772;DHT22;4925;52.588;13.370;2023-11-21T15:14:48;4.70;99.90
9772;DHT22;4925;52.588;13.370;2023-11-21T15:17:17;4.60;99.90
9772;DHT22;4925;52.588;13.370;2023-11-21T15:19:56;4.70;99.90
9772;DHT22;4925;52.588;13.370;2023-11-21T15:22:25;4.70;99.90
9772;DHT22;4925;52.588;13.370;2023-11-21T15:24:54;4.80;99.90
9772;DHT22;4925;52.588;13.370;2023-11-21T15:27:19;4.80;99.90
9772;DHT22;4925;52.588;13.370;2023-11-21T15:29:46;4.80;99.90
9772;DHT22;4925;52.588;13.370;2023-11-21T15:32:12;4.80;99.90
9772;DHT22;4925;52.588;13.370;2023-11-21T15:34:38;4.80;99.90
9772;DHT22;4925;52.588;13.370;2023-11-21T15:37:07;4.80;99.90
9772;DHT22;4925;52.588;13.370;2023-11-21T15:39:37;4.70;99.90
9772;DHT22;4925;52.588;13.370;2023-11-21T15:42:05;4.60;99.90
9772;DHT22;4925;52.588;13.370;2023-11-21T15:44:32;4.60;99.90
9772;DHT22;4925;52.588;13.370;2023-11-21T15:47:00;4.50;99.90
9772;DHT22;4925;52.588;13.370;2023-11-21T15:49:26;4.40;99.90
9772;DHT22;4925;52.588;13.370;2023-11-21T15:51:56;4.40;99.90
9772;DHT22;4925;52.588;13.370;2023-11-21T15:54:25;4.30;99.90
9772;DHT22;4925;52.588;13.370;2023-11-21T15:56:55;4.30;99.90
9772;DHT22;4925;52.588;13.370;2023-11-21T15:59:27;4.30;99.90
9772;DHT22;4925;52.588;13.370;2023-11-21T16:01:59;4.40;99.90
9772;DHT22;4925;52.588;13.370;2023-11-21T16:04:25;4.40;99.90
9772;DHT22;4925;52.588;13.370;2023-11-21T16:06:54;4.40;99.90
9772;DHT22;4925;52.588;13.370;2023-11-21T16:09:21;4.40;99.90
9772;DHT22;4925;52.588;13.370;2023-11-21T16:12:02;4.30;99.90
9772;DHT22;4925;52.588;13.370;2023-11-21T16:14:30;4.30;99.90
9772;DHT22;4925;52.588;13.370;2023-11-21T16:17:11;4.40;99.90
9772;DHT22;4925;52.588;13.370;2023-11-21T16:19:38;4.30;99.90
9772;DHT22;4925;52.588;13.370;2023-11-21T16:22:05;4.30;99.90
9772;DHT22;4925;52.588;13.370;2023-11-21T16:24:32;4.30;99.90
9772;DHT22;4925;52.588;13.370;2023-11-21T16:26:59;4.30;99.90